Data for 04/21/2018

Time Sea-Level Adjusted Pressure Absolute Pressure Temperature Relative Humidity Dew Point   
(mb) (inHg) (mb) (inHg) (C) (F) (%) (C) (F)
00:05 1021 30.15 850 25.1 5.8 42.4 47 -4.6 23.7
00:10 1021 30.15 850 25.1 5.8 42.4 48 -4.5 24
00:15 1021 30.15 850 25.1 5.7 42.2 48 -4.5 24
00:20 1021 30.15 850 25.1 5.6 42.1 48 -4.4 24
00:25 1021 30.15 850 25.1 5.5 41.9 49 -4.4 24.1
00:30 1021 30.15 850 25.1 5.4 41.7 48 -4.7 23.6
00:35 1021 30.15 850 25.1 5.4 41.8 48 -4.6 23.7
00:40 1021 30.15 850 25.1 5.4 41.6 49 -4.5 23.9
00:45 1021 30.15 850 25.1 5.2 41.4 49 -4.7 23.6
00:50 1021 30.15 850 25.1 5.5 41.9 47 -4.8 23.3
00:55 1021 30.15 850 25.1 5.6 42.1 48 -4.6 23.7
01:00 1021 30.15 850 25.1 5.4 41.7 49 -4.3 24.2
01:05 1021 30.15 850 25.1 5.1 41.2 50 -4.5 23.9
01:10 1021 30.15 850 25.1 5 41.1 50 -4.6 23.8
01:15 1021 30.15 850 25.1 5.2 41.3 49 -4.6 23.8
01:20 1021 30.15 850 25.1 5.3 41.5 49 -4.7 23.5
01:25 1021 30.15 850 25.1 5.4 41.7 47 -4.9 23.2
01:30 1021 30.15 850 25.1 5.5 41.9 47 -4.9 23.1
01:35 1021 30.15 850 25.1 5.4 41.8 47 -4.9 23.1
01:40 1021 30.15 850 25.1 5.5 41.8 47 -5.1 22.9
01:45 1021 30.15 850 25.1 5.5 41.9 46 -5.1 22.9
01:50 1021 30.15 850 25.1 5.7 42.3 45 -5.2 22.6
01:55 1021 30.15 850 25.1 5.6 42.1 46 -4.9 23.1
02:00 1021 30.15 850 25.1 5.5 42 48 -4.6 23.8
02:05 1021 30.15 850 25.1 5.4 41.8 47 -4.8 23.3
02:10 1021 30.15 850 25.1 5.8 42.5 45 -5.3 22.5
02:15 1021 30.15 850 25.1 5.7 42.3 47 -4.7 23.5
02:20 1021 30.15 850 25.1 5.2 41.4 49 -4.7 23.5
02:25 1021 30.15 850 25.1 4.9 40.8 50 -4.8 23.4
02:30 1021 30.15 850 25.1 5 40.9 48 -5 23
02:35 1021 30.15 850 25.1 5 41.1 48 -5.1 22.8
02:40 1021 30.15 850 25.1 5.3 41.5 48 -4.8 23.4
02:45 1021 30.15 850 25.1 5.2 41.4 48 -4.8 23.4
02:50 1021 30.15 850 25.1 5.1 41.2 49 -4.8 23.3
02:55 1021 30.15 850 25.1 5.1 41.3 49 -4.7 23.5
03:00 1021 30.15 850 25.1 4.8 40.6 50 -4.7 23.5
03:05 1021 30.15 850 25.1 4.5 40.2 51 -4.8 23.3
03:10 1021 30.15 850 25.1 4.4 39.9 51 -4.8 23.4
03:15 1021 30.15 850 25.1 4.4 39.8 51 -4.9 23.1
03:20 1021 30.15 850 25.1 4.7 40.5 49 -5 23
03:25 1021 30.15 850 25.1 4.7 40.5 49 -5.1 22.8
03:30 1021 30.15 850 25.1 4.6 40.3 51 -4.8 23.4
03:35 1021 30.15 850 25.1 4.3 39.8 53 -4.4 24.1
03:40 1021 30.15 850 25.1 3.8 38.8 54 -4.6 23.7
03:45 1021 30.15 850 25.1 4 39.2 54 -4.5 23.9
03:50 1021 30.15 850 25.1 4.3 39.8 52 -4.7 23.6
03:55 1021 30.15 850 25.1 4.4 39.9 52 -4.7 23.6
04:00 1021 30.15 850 25.1 4.6 40.2 51 -4.7 23.5
04:05 1021 30.15 850 25.1 4.6 40.2 50 -4.8 23.3
04:10 1021 30.15 850 25.1 4.6 40.3 50 -4.8 23.3
04:15 1021 30.15 850 25.1 4.5 40 51 -4.7 23.5
04:20 1021 30.15 850 25.1 4.2 39.6 52 -4.8 23.4
04:25 1021 30.15 850 25.1 4.1 39.3 52 -4.9 23.2
04:30 1021 30.15 850 25.1 4 39.1 53 -4.8 23.4
04:35 1021 30.15 850 25.1 3.8 38.9 53 -4.9 23.2
04:40 1021 30.15 850 25.1 3.7 38.6 55 -4.6 23.8
04:45 1021 30.15 850 25.1 3.9 39 52 -5 23.1
04:50 1021 30.15 850 25.1 3.9 39 56 -4.1 24.7
04:55 1021 30.15 850 25.1 3.4 38.1 57 -4.3 24.2
05:00 1021 30.15 850 25.1 3.5 38.2 56 -4.6 23.8
05:05 1021 30.15 850 25.1 3.4 38.1 57 -4.3 24.3
05:10 1021 30.15 850 25.1 3.3 38 57 -4.4 24.1
05:15 1021 30.15 850 25.1 3.2 37.8 58 -4.3 24.3
05:20 1021 30.15 850 25.1 3 37.4 59 -4.3 24.2
05:25 1021 30.15 850 25.1 2.9 37.2 58 -4.6 23.7
05:30 1021 30.15 850 25.1 2.7 36.9 59 -4.5 24
05:35 1021 30.15 850 25.1 2.7 36.8 58 -4.8 23.3
05:40 1021 30.15 850 25.1 3.1 37.5 57 -4.7 23.6
05:45 1021 30.15 850 25.1 3.2 37.7 56 -4.7 23.5
05:50 1021 30.15 850 25.1 3.2 37.7 56 -4.7 23.5
05:55 1021 30.15 850 25.1 2.9 37.3 58 -4.5 23.9
06:00 1021 30.15 850 25.1 2.6 36.6 59 -4.6 23.8
06:05 1021 30.15 850 25.1 2.4 36.2 60 -4.7 23.6
06:10 1021 30.15 850 25.1 2.7 36.8 57 -4.9 23.2
06:15 1021 30.15 850 25.1 2.9 37.2 56 -5 23.1
06:20 1021 30.15 850 25.1 3 37.4 57 -4.7 23.6
06:25 1021 30.15 850 25.1 2.7 36.8 58 -4.8 23.4
06:30 1021 30.15 850 25.1 2.8 37.1 58 -4.7 23.5
06:35 1021 30.15 850 25.1 2.9 37.2 58 -4.6 23.6
06:40 1021 30.15 850 25.1 2.8 37.1 58 -4.6 23.7
06:45 1021 30.15 850 25.1 2.7 36.8 59 -4.6 23.7
06:50 1021 30.15 850 25.1 3 37.3 57 -4.8 23.4
06:55 1021 30.15 850 25.1 3.2 37.8 57 -4.6 23.8
07:00 1021 30.15 850 25.1 3.2 37.8 57 -4.5 24
07:05 1021 30.15 850 25.1 3.2 37.8 56 -4.6 23.7
07:10 1021 30.15 850 25.1 3.4 38.1 57 -4.4 24
07:15 1021 30.15 850 25.1 3.4 38.2 55 -4.7 23.6
07:20 1021 30.15 850 25.1 3.9 39 54 -4.7 23.6
07:25 1021 30.15 850 25.1 4.2 39.6 52 -4.7 23.6
07:30 1021 30.15 850 25.1 4.4 40 51 -4.8 23.4
07:35 1021 30.15 850 25.1 4.8 40.7 51 -4.5 23.8
07:40 1021 30.15 850 25.1 5.1 41.2 50 -4.4 24
07:45 1021 30.15 850 25.1 5.6 42 49 -4.3 24.3
07:50 1021 30.15 850 25.1 5.7 42.3 49 -4.2 24.5
07:55 1021 30.15 850 25.1 6.1 43 47 -4.2 24.4
08:00 1021 30.15 850 25.1 6.3 43.3 48 -4 24.9
08:05 1021 30.15 850 25.1 6.5 43.7 48 -3.8 25.1
08:10 1021 30.15 850 25.1 6.4 43.5 48 -3.7 25.3
08:15 1021 30.15 850 25.1 6.6 43.8 48 -3.7 25.3
08:20 1021 30.15 850 25.1 6.9 44.3 47 -3.6 25.6
08:25 1021 30.15 850 25.1 7.1 44.8 46 -3.6 25.5
08:30 1021 30.15 850 25.1 7.6 45.7 45 -3.6 25.5
08:35 1021 30.15 850 25.1 7.9 46.2 45 -3.4 25.9
08:40 1021 30.15 850 25.1 8.4 47.1 43 -3.5 25.6
08:45 1021 30.15 850 25.1 8.5 47.4 42 -3.7 25.3
08:50 1021 30.15 850 25.1 8.7 47.6 42 -3.6 25.6
08:55 1021 30.15 850 25.1 9.8 49.6 37 -4 24.7
09:00 1021 30.15 850 25.1 10.3 50.6 36 -4 24.8
09:05 1021 30.15 850 25.1 10.6 51.2 36 -3.6 25.5
09:10 1021 30.15 850 25.1 10.8 51.5 37 -3.3 26.1
09:15 1021 30.15 850 25.1 10.6 51 37 -3.6 25.5
09:20 1021 30.15 850 25.1 10.6 51.1 36 -4 24.9
09:25 1021 30.15 850 25.1 10.9 51.7 34 -4.5 24
09:30 1021 30.15 850 25.1 10.9 51.5 32 -5 23.1
09:35 1021 30.15 850 25.1 11.5 52.7 34 -3.9 24.9
09:40 1021 30.15 850 25.1 11.3 52.3 35 -3.6 25.5
09:45 1021 30.15 850 25.1 11.7 53 33 -4 24.8
09:50 1021 30.15 850 25.1 12.4 54.4 32 -3.7 25.4
09:55 1021 30.15 850 25.1 12.6 54.8 32 -3.7 25.3
10:00 1021 30.15 850 25.1 12.5 54.5 31 -4.2 24.4
10:05 1021 30.15 850 25.1 12.8 55 31 -4 24.7
10:10 1021 30.15 850 25.1 12.9 55.1 35 -2.1 28.2
10:15 1021 30.15 850 25.1 12.2 53.9 36 -2.6 27.4
10:20 1021 30.15 850 25.1 12.7 54.8 35 -2.4 27.7
10:25 1021 30.15 850 25.1 13.1 55.5 33 -2.9 26.8
10:30 1021 30.15 850 25.1 13.2 55.7 33 -2.6 27.2
10:35 1021 30.15 850 25.1 13 55.4 33 -2.9 26.7
10:40 1021 30.15 850 25.1 12.9 55.3 34 -2.7 27.2
10:45 1021 30.15 850 25.1 12.1 53.9 34 -3.3 26.1
10:50 1021 30.15 850 25.1 13 55.4 31 -3.5 25.7
10:55 1021 30.15 850 25.1 13.1 55.6 31 -3.4 25.9
11:00 1021 30.15 850 25.1 12.8 55 32 -3.6 25.4
11:05 1021 30.15 850 25.1 13.6 56.5 31 -3.3 26
11:10 1021 30.15 850 25.1 14.2 57.5 28 -3.8 25.2
11:15 1021 30.15 850 25.1 13.9 57 30 -3.3 26
11:20 1021 30.15 850 25.1 14.2 57.5 27 -4.4 24.1
11:25 1020 30.12 850 25.1 14.9 58.7 26 -4.2 24.5
11:30 1020 30.12 850 25.1 15.1 59.2 25 -4.6 23.7
11:35 1020 30.12 850 25.1 14.7 58.5 25 -4.8 23.4
11:40 1020 30.12 850 25.1 14.5 58.2 25 -5 23
11:45 1020 30.12 849 25.07 14.8 58.6 24 -5.2 22.6
11:50 1020 30.12 849 25.07 15.7 60.3 24 -4.8 23.3
11:55 1020 30.12 849 25.07 15.7 60.3 26 -3.7 25.3
12:00 1020 30.12 849 25.07 15.2 59.4 26 -4.2 24.5
12:05 1020 30.12 849 25.07 15.2 59.4 25 -4.6 23.7
12:10 1020 30.12 849 25.07 16.2 61.1 24 -4.4 24.1
12:15 1020 30.12 849 25.07 16.8 62.2 24 -4 24.9
12:20 1020 30.12 849 25.07 17.1 62.8 23 -4.1 24.5
12:25 1020 30.12 849 25.07 17.4 63.3 23 -3.8 25.1
12:30 1020 30.12 849 25.07 17.4 63.3 22 -4.6 23.6
12:35 1020 30.12 849 25.07 17 62.6 21 -5.1 22.8
12:40 1019 30.09 849 25.07 17.2 62.9 22 -4.6 23.8
12:45 1019 30.09 848 25.04 16.8 62.3 21 -5.5 22.1
12:50 1019 30.09 848 25.04 17.7 63.8 21 -4.8 23.3
12:55 1019 30.09 848 25.04 18.1 64.6 20 -5.2 22.6
13:00 1019 30.09 848 25.04 17.5 63.5 21 -4.7 23.5
13:05 1019 30.09 848 25.04 17.5 63.4 21 -4.8 23.4
13:10 1019 30.09 848 25.04 17.8 64.1 21 -4.8 23.3
13:15 1019 30.09 848 25.04 18.8 65.8 19 -5 23.1
13:20 1019 30.09 848 25.04 19.2 66.5 18 -5.3 22.4
13:25 1019 30.09 848 25.04 19.1 66.3 19 -5.3 22.5
13:30 1019 30.09 848 25.04 19.6 67.2 18 -5 22.9
13:35 1019 30.09 848 25.04 18.5 65.3 19 -5.1 22.8
13:40 1018 30.06 848 25.04 18.7 65.6 19 -5.4 22.3
13:45 1018 30.06 848 25.04 18.2 64.8 20 -5.2 22.6
13:50 1018 30.06 847 25.01 18.7 65.7 19 -5.2 22.6
13:55 1018 30.06 847 25.01 19.2 66.5 18 -5.3 22.5
14:00 1018 30.06 847 25.01 19.7 67.4 19 -4.3 24.3
14:05 1018 30.06 847 25.01 19.8 67.6 18 -5 23
14:10 1018 30.06 847 25.01 19.8 67.6 19 -4.5 24
14:15 1018 30.06 847 25.01 19.6 67.2 19 -4.6 23.7
14:20 1018 30.06 847 25.01 19.9 67.9 19 -4.4 24.1
14:25 1018 30.06 847 25.01 19.9 67.8 19 -4.4 24.1
14:30 1018 30.06 847 25.01 20.3 68.5 18 -4.8 23.3
14:35 1018 30.06 847 25.01 20.7 69.3 18 -4.6 23.7
14:40 1018 30.06 847 25.01 21.2 70.2 19 -3.1 26.5
14:45 1018 30.06 847 25.01 20.9 69.5 16 -5.8 21.6
14:50 1018 30.06 847 25.01 20.2 68.3 17 -5.7 21.7
14:55 1018 30.06 847 25.01 20.3 68.6 16 -5.9 21.3
15:00 1018 30.06 847 25.01 19.9 67.8 18 -5.4 22.4
15:05 1018 30.06 847 25.01 20.3 68.6 17 -5.3 22.4
15:10 1018 30.06 847 25.01 20 67.9 16 -6.1 21
15:15 1018 30.06 847 25.01 19.7 67.4 17 -5.7 21.7
15:20 1018 30.06 847 25.01 19.7 67.5 17 -6.1 21.1
15:25 1018 30.06 847 25.01 20 68 15 -6.9 19.6
15:30 1018 30.06 847 25.01 20.4 68.7 16 -6.5 20.2
15:35 1018 30.06 847 25.01 20.3 68.5 15 -6.8 19.8
15:40 1018 30.06 847 25.01 20.4 68.8 15 -6.9 19.6
15:45 1018 30.06 847 25.01 20.8 69.4 15 -6.9 19.7
15:50 1018 30.06 847 25.01 20.4 68.8 16 -6.5 20.3
15:55 1018 30.06 847 25.01 20.5 68.9 15 -7 19.5
16:00 1018 30.06 847 25.01 20.7 69.3 15 -6.8 19.7
16:05 1018 30.06 847 25.01 20.3 68.5 15 -7.2 19
16:10 1018 30.06 847 25.01 20.1 68.1 15 -7.6 18.3
16:15 1017 30.03 847 25.01 20 67.9 15 -7.2 19.1
16:20 1017 30.03 847 25.01 20.5 68.9 15 -7.3 18.9
16:25 1017 30.03 847 25.01 20.3 68.6 15 -7 19.5
16:30 1017 30.03 847 25.01 20.6 69.2 15 -6.8 19.8
16:35 1017 30.03 847 25.01 20.8 69.4 14 -7.2 19.1
16:40 1017 30.03 847 25.01 20.4 68.7 14 -7.5 18.5
16:45 1017 30.03 847 25.01 20.2 68.3 15 -7.2 19
16:50 1017 30.03 846 24.98 20.3 68.6 16 -6.5 20.2
16:55 1017 30.03 846 24.98 19.8 67.7 16 -6.6 20.2
17:00 1017 30.03 846 24.98 20.2 68.3 15 -7.1 19.3
17:05 1017 30.03 846 24.98 20.3 68.5 14 -7.6 18.3
17:10 1017 30.03 846 24.98 20.5 68.8 15 -6.8 19.8
17:15 1017 30.03 846 24.98 20.5 68.8 15 -6.7 20
17:20 1017 30.03 846 24.98 20.9 69.5 15 -7 19.4
17:25 1017 30.03 846 24.98 21 69.7 15 -6.2 20.8
17:30 1017 30.03 846 24.98 20.5 69 15 -7 19.4
17:35 1017 30.03 846 24.98 20.8 69.5 15 -6.7 20
17:40 1017 30.03 846 24.98 20.5 69 15 -6.7 20
17:45 1017 30.03 846 24.98 20.4 68.8 16 -5.9 21.4
17:50 1017 30.03 846 24.98 19.9 67.8 16 -6.9 19.6
17:55 1017 30.03 846 24.98 19.7 67.5 15 -7.6 18.3
18:00 1017 30.03 846 24.98 20 68 15 -7.2 19
18:05 1017 30.03 846 24.98 19.8 67.7 15 -7.1 19.3
18:10 1017 30.03 846 24.98 19.9 67.7 15 -7.3 18.8
18:15 1017 30.03 846 24.98 20.2 68.3 15 -6.9 19.6
18:20 1017 30.03 846 24.98 20.3 68.6 15 -6.9 19.5
18:25 1017 30.03 846 24.98 20.3 68.5 15 -6.8 19.8
18:30 1017 30.03 846 24.98 20.2 68.3 15 -7.3 18.9
18:35 1017 30.03 846 24.98 20 68.1 16 -6.7 19.9
18:40 1017 30.03 846 24.98 19.6 67.3 17 -5.7 21.8
18:45 1017 30.03 846 24.98 19.3 66.8 17 -6.2 20.8
18:50 1017 30.03 846 24.98 19.2 66.6 17 -6.2 20.8
18:55 1017 30.03 847 25.01 19.1 66.3 17 -6.3 20.6
19:00 1017 30.03 847 25.01 19.1 66.4 17 -6.4 20.5
19:05 1017 30.03 847 25.01 19 66.3 17 -6.1 21
19:10 1017 30.03 847 25.01 18.9 66 17 -6.7 20
19:15 1017 30.03 846 24.98 18.7 65.7 17 -6.6 20.1
19:20 1017 30.03 846 24.98 18.6 65.5 17 -6.6 20
19:25 1017 30.03 846 24.98 18.5 65.2 18 -6.4 20.4
19:30 1017 30.03 846 24.98 18.4 65.1 17 -6.6 20
19:35 1017 30.03 846 24.98 18.2 64.7 18 -6.5 20.2
19:40 1017 30.03 846 24.98 18.1 64.5 19 -6.1 21.1
19:45 1017 30.03 846 24.98 17.9 64.2 19 -5.9 21.5
19:50 1017 30.03 847 25.01 17.7 63.8 20 -5.4 22.3
19:55 1017 30.03 847 25.01 17.5 63.4 20 -5.6 21.9
20:00 1017 30.03 847 25.01 17.3 63.1 22 -4.6 23.7
20:05 1017 30.03 847 25.01 16.8 62.2 24 -3.6 25.6
20:10 1018 30.06 847 25.01 16.1 61 26 -3 26.5
20:15 1018 30.06 847 25.01 15.5 59.9 29 -2.5 27.4
20:20 1018 30.06 847 25.01 15.1 59.1 29 -2.5 27.4
20:25 1018 30.06 847 25.01 14.8 58.6 30 -2.6 27.3
20:30 1018 30.06 847 25.01 14.6 58.3 30 -2.6 27.3
20:35 1018 30.06 847 25.01 14.4 57.9 31 -2.2 28
20:40 1018 30.06 847 25.01 14.1 57.4 32 -2.2 28
20:45 1018 30.06 848 25.04 13.8 56.8 33 -2.1 28.2
20:50 1019 30.09 848 25.04 13.4 56 33 -2.6 27.4
20:55 1019 30.09 848 25.04 13 55.3 33 -3 26.6
21:00 1019 30.09 848 25.04 12.8 55 33 -3.2 26.3
21:05 1019 30.09 848 25.04 12.6 54.7 33 -3.1 26.4
21:10 1019 30.09 848 25.04 12.4 54.4 33 -3.2 26.2
21:15 1019 30.09 849 25.07 12.2 53.9 33 -3.4 25.8
21:20 1019 30.09 849 25.07 12 53.5 33 -3.6 25.5
21:25 1020 30.12 849 25.07 11.8 53.2 34 -3.6 25.5
21:30 1020 30.12 849 25.07 11.5 52.7 35 -3.5 25.7
21:35 1020 30.12 849 25.07 11.2 52.2 36 -3.4 25.8
21:40 1020 30.12 849 25.07 10.9 51.7 36 -3.6 25.5
21:45 1020 30.12 849 25.07 10.8 51.4 35 -3.9 25
21:50 1020 30.12 849 25.07 10.8 51.4 35 -3.9 25
21:55 1020 30.12 849 25.07 10.7 51.3 36 -3.8 25.2
22:00 1020 30.12 850 25.1 10.4 50.8 38 -3.2 26.2
22:05 1021 30.15 850 25.1 10 50 39 -3.2 26.2
22:10 1021 30.15 850 25.1 10 49.9 39 -3.3 26.1
22:15 1021 30.15 850 25.1 10 49.9 38 -3.7 25.3
22:20 1021 30.15 850 25.1 10.1 50.1 37 -4 24.8
22:25 1021 30.15 850 25.1 10.1 50.1 36 -4.1 24.6
22:30 1021 30.15 850 25.1 10 50 37 -4.1 24.5
22:35 1021 30.15 850 25.1 10 50 36 -4.3 24.2
22:40 1021 30.15 850 25.1 10 49.9 36 -4.4 24.1
22:45 1021 30.15 850 25.1 9.9 49.8 36 -4.5 23.8
22:50 1021 30.15 850 25.1 9.9 49.8 36 -4.4 24
22:55 1021 30.15 850 25.1 9.8 49.6 36 -4.6 23.8
23:00 1021 30.15 850 25.1 9.7 49.5 37 -4.3 24.3
23:05 1021 30.15 850 25.1 9.6 49.3 37 -4.2 24.4
23:10 1021 30.15 850 25.1 9.5 49.1 38 -4.1 24.5
23:15 1021 30.15 850 25.1 9.3 48.8 38 -4.4 24.2
23:20 1021 30.15 850 25.1 9.4 48.8 38 -4.3 24.2
23:25 1021 30.15 851 25.13 9.3 48.7 39 -3.9 24.9
23:30 1021 30.15 851 25.13 9.1 48.3 40 -3.7 25.3
23:35 1021 30.15 851 25.13 8.7 47.7 44 -2.8 27
23:40 1021 30.15 850 25.1 8.1 46.6 47 -2.6 27.3
23:45 1021 30.15 850 25.1 7.7 45.8 47 -2.8 26.9
23:50 1021 30.15 850 25.1 7.4 45.4 48 -2.9 26.7
23:55 1021 30.15 851 25.13 7.3 45.2 49 -2.6 27.3
24:00 1021 30.15 851 25.13 7 44.7 49 -2.9 26.7